Terminal Aerodrome Forecast
Issued by NWS

Home | Current Version | Previous Version | Text Only | Print | Product List | Glossary On
Versions: 1 2 3 4 5 6 7 8 9 10 11 12 13 14 15 16
000
FTUS41 KPHI 281135
TAFMIV
TAF
KMIV 281135Z 2812/2912 18003KT P6SM SCT200
     FM281400 22006KT P6SM BKN200
     FM281900 21008KT P6SM BKN050
     FM290500 33003KT P6SM SCT200
     FM290900 04003KT 5SM BR FEW200=

USA.gov is the U.S. government's official web portal to all federal, state and local government web resources and services.